createdAt,value
2023-01-30T00:00:54.409Z,3.42
2023-01-30T00:03:22.397Z,3.40
2023-01-30T00:05:50.124Z,2.33
2023-01-30T00:08:19.390Z,2.50
2023-01-30T00:10:47.312Z,2.95
2023-01-30T00:13:15.575Z,2.15
2023-01-30T00:15:43.494Z,2.58
2023-01-30T00:18:11.272Z,2.50
2023-01-30T00:20:38.851Z,2.67
2023-01-30T00:23:06.812Z,2.05
2023-01-30T00:25:35.910Z,2.47
2023-01-30T00:28:03.609Z,2.47
2023-01-30T00:30:31.674Z,2.40
2023-01-30T00:33:00.004Z,2.72
2023-01-30T00:35:29.437Z,2.47
2023-01-30T00:37:58.013Z,2.20
2023-01-30T00:40:25.997Z,1.90
2023-01-30T00:43:21.187Z,1.92
2023-01-30T00:46:06.423Z,2.00
2023-01-30T00:48:34.035Z,1.73
2023-01-30T00:51:01.571Z,2.53
2023-01-30T00:53:29.255Z,1.33
2023-01-30T00:55:57.086Z,1.45
2023-01-30T00:58:26.038Z,1.60
2023-01-30T01:00:53.879Z,1.17
2023-01-30T01:03:21.603Z,1.60
2023-01-30T01:05:49.538Z,1.67
2023-01-30T01:08:17.489Z,1.23
2023-01-30T01:10:45.123Z,1.67
2023-01-30T01:13:12.657Z,1.50
2023-01-30T01:15:41.545Z,1.48
2023-01-30T01:18:09.115Z,1.63
2023-01-30T01:20:36.669Z,1.40
2023-01-30T01:23:04.356Z,1.42
2023-01-30T01:25:31.937Z,1.17
2023-01-30T01:27:59.474Z,1.83
2023-01-30T01:30:27.062Z,1.27
2023-01-30T01:32:57.484Z,0.82
2023-01-30T01:35:25.105Z,1.30
2023-01-30T01:37:54.040Z,1.40
2023-01-30T01:40:39.814Z,1.40
2023-01-30T01:43:15.876Z,1.38
2023-01-30T01:45:44.521Z,1.80
2023-01-30T01:48:16.971Z,1.23
2023-01-30T01:50:46.619Z,1.67
2023-01-30T01:53:15.742Z,1.10
2023-01-30T01:55:44.644Z,1.85
2023-01-30T01:58:14.283Z,1.50
2023-01-30T02:00:41.853Z,1.30
2023-01-30T02:03:11.498Z,1.45
2023-01-30T02:05:43.863Z,1.30
2023-01-30T02:08:12.887Z,1.00
2023-01-30T02:10:46.166Z,2.20
2023-01-30T02:13:13.717Z,1.42
2023-01-30T02:15:41.460Z,1.20
2023-01-30T02:18:09.081Z,1.65
2023-01-30T02:20:45.088Z,1.40
2023-01-30T02:23:27.018Z,1.48
2023-01-30T02:26:06.204Z,1.05
2023-01-30T02:28:50.080Z,1.70
2023-01-30T02:31:33.869Z,1.50
2023-01-30T02:34:12.897Z,1.52
2023-01-30T02:36:47.498Z,1.50
2023-01-30T02:39:19.814Z,1.40
2023-01-30T02:41:51.295Z,1.60
2023-01-30T02:44:21.798Z,1.52
2023-01-30T02:46:54.144Z,1.30
2023-01-30T02:49:24.668Z,1.10
2023-01-30T02:51:52.445Z,1.77
2023-01-30T02:54:20.062Z,1.33
2023-01-30T02:56:48.480Z,1.65
2023-01-30T02:59:17.029Z,1.60
2023-01-30T03:02:05.761Z,1.48
2023-01-30T03:04:41.069Z,1.02
2023-01-30T03:07:17.871Z,1.55
2023-01-30T03:09:49.121Z,1.65
2023-01-30T03:12:19.328Z,1.13
2023-01-30T03:14:48.600Z,1.55
2023-01-30T03:17:19.224Z,1.42
2023-01-30T03:19:46.982Z,1.67
2023-01-30T03:22:14.557Z,1.55
2023-01-30T03:24:43.141Z,1.00
2023-01-30T03:27:12.377Z,1.52
2023-01-30T03:29:40.041Z,1.52
2023-01-30T03:32:07.789Z,1.45
2023-01-30T03:34:36.744Z,1.30
2023-01-30T03:37:05.000Z,1.65
2023-01-30T03:39:32.597Z,1.25
2023-01-30T03:42:00.198Z,1.58
2023-01-30T03:44:27.769Z,1.67
2023-01-30T03:46:55.318Z,1.27
2023-01-30T03:49:22.875Z,1.35
2023-01-30T03:51:51.872Z,1.85
2023-01-30T03:54:19.405Z,1.67
2023-01-30T03:56:46.975Z,1.88
2023-01-30T03:59:14.537Z,1.25
2023-01-30T04:01:42.108Z,1.17
2023-01-30T04:04:09.677Z,1.23
2023-01-30T04:06:37.241Z,1.53
2023-01-30T04:09:06.252Z,1.55
2023-01-30T04:11:33.802Z,1.05
2023-01-30T04:14:01.391Z,1.70
2023-01-30T04:16:28.985Z,1.30
2023-01-30T04:18:56.581Z,1.50
2023-01-30T04:21:24.174Z,1.77
2023-01-30T04:23:51.722Z,1.40
2023-01-30T04:26:20.685Z,1.48
2023-01-30T04:28:48.378Z,1.85
2023-01-30T04:31:16.024Z,1.87
2023-01-30T04:33:43.704Z,1.50
2023-01-30T04:36:11.711Z,1.60
2023-01-30T04:38:39.593Z,1.73
2023-01-30T04:41:07.194Z,1.10
2023-01-30T04:43:36.129Z,0.80
2023-01-30T04:46:03.668Z,0.88
2023-01-30T04:48:31.370Z,0.80
2023-01-30T04:50:58.928Z,1.08
2023-01-30T04:53:26.547Z,0.70
2023-01-30T04:55:54.100Z,1.17
2023-01-30T04:58:21.776Z,0.50
2023-01-30T05:00:50.768Z,0.70
2023-01-30T05:03:18.555Z,0.80
2023-01-30T05:05:47.720Z,0.90
2023-01-30T05:08:15.615Z,0.80
2023-01-30T05:10:43.410Z,1.83
2023-01-30T05:13:10.974Z,1.02
2023-01-30T05:15:39.918Z,1.33
2023-01-30T05:18:08.886Z,1.10
2023-01-30T05:20:36.443Z,2.27
2023-01-30T05:23:03.984Z,1.58
2023-01-30T05:25:31.716Z,1.08
2023-01-30T05:28:00.062Z,1.48
2023-01-30T05:30:27.678Z,1.85
2023-01-30T05:32:55.276Z,1.17
2023-01-30T05:35:24.231Z,1.50
2023-01-30T05:37:51.837Z,1.60
2023-01-30T05:40:19.521Z,1.38
2023-01-30T05:42:47.065Z,1.95
2023-01-30T05:45:14.798Z,1.40
2023-01-30T05:47:42.362Z,2.00
2023-01-30T05:50:10.774Z,1.33
2023-01-30T05:52:39.729Z,1.60
2023-01-30T05:55:07.878Z,1.65
2023-01-30T05:57:35.436Z,1.70
2023-01-30T06:00:03.226Z,1.50
2023-01-30T06:02:31.388Z,1.48
2023-01-30T06:04:59.000Z,1.65
2023-01-30T06:07:26.607Z,1.15
2023-01-30T06:09:55.532Z,1.73
2023-01-30T06:12:23.330Z,1.33
2023-01-30T06:14:50.905Z,2.15
2023-01-30T06:17:18.471Z,1.50
2023-01-30T06:19:46.025Z,1.25
2023-01-30T06:22:13.584Z,1.63
2023-01-30T06:24:41.145Z,2.40
2023-01-30T06:27:10.076Z,2.72
2023-01-30T06:29:37.666Z,1.50
2023-01-30T06:32:05.420Z,1.75
2023-01-30T06:34:33.114Z,1.50
2023-01-30T06:37:00.732Z,1.67
2023-01-30T06:39:28.309Z,1.60
2023-01-30T06:41:56.086Z,1.30
2023-01-30T06:44:25.043Z,1.25
2023-01-30T06:46:53.529Z,1.53
2023-01-30T06:49:21.062Z,2.45
2023-01-30T06:51:48.678Z,1.17
2023-01-30T06:54:16.393Z,1.52
2023-01-30T06:56:44.084Z,0.85
2023-01-30T06:59:11.625Z,1.50
2023-01-30T07:01:40.526Z,1.05
2023-01-30T07:04:08.218Z,1.90
2023-01-30T07:06:35.815Z,0.88
2023-01-30T07:09:03.398Z,1.17
2023-01-30T07:11:31.205Z,1.30
2023-01-30T07:13:58.787Z,0.90
2023-01-30T07:16:29.384Z,0.95
2023-01-30T07:18:58.681Z,1.02
2023-01-30T07:21:27.267Z,0.70
2023-01-30T07:23:54.859Z,0.50
2023-01-30T07:26:22.445Z,0.82
2023-01-30T07:28:50.006Z,0.82
2023-01-30T07:31:17.700Z,0.50
2023-01-30T07:33:45.276Z,0.57
2023-01-30T07:36:14.165Z,0.50
2023-01-30T07:38:41.755Z,0.60
2023-01-30T07:41:09.313Z,0.50
2023-01-30T07:43:36.901Z,0.82
2023-01-30T07:46:04.791Z,0.55
2023-01-30T07:48:32.382Z,1.00
2023-01-30T07:51:00.008Z,0.68
2023-01-30T07:53:28.927Z,0.40
2023-01-30T07:55:56.549Z,0.30
2023-01-30T07:58:24.130Z,0.68
2023-01-30T08:00:51.737Z,0.70
2023-01-30T08:03:19.464Z,1.08
2023-01-30T08:05:47.830Z,0.55
2023-01-30T08:08:15.488Z,1.08
2023-01-30T08:10:44.542Z,0.90
2023-01-30T08:13:12.130Z,0.70
2023-01-30T08:15:39.713Z,1.13
2023-01-30T08:18:08.251Z,0.80
2023-01-30T08:20:35.878Z,0.95
2023-01-30T08:23:03.467Z,1.13
2023-01-30T08:25:31.443Z,1.03
2023-01-30T08:28:01.181Z,1.35
2023-01-30T08:30:30.342Z,1.10
2023-01-30T08:32:58.192Z,1.20
2023-01-30T08:35:25.754Z,1.27
2023-01-30T08:37:53.301Z,1.43
2023-01-30T08:40:21.161Z,1.92
2023-01-30T08:42:48.905Z,1.15
2023-01-30T08:45:17.920Z,1.98
2023-01-30T08:47:45.807Z,1.38
2023-01-30T08:50:13.435Z,1.60
2023-01-30T08:52:41.376Z,1.98
2023-01-30T08:55:09.624Z,1.80
2023-01-30T08:57:37.344Z,1.60
2023-01-30T09:00:05.647Z,1.60
2023-01-30T09:02:34.607Z,1.43
2023-01-30T09:05:02.284Z,2.15
2023-01-30T09:07:30.059Z,2.03
2023-01-30T09:09:57.917Z,2.00
2023-01-30T09:12:25.493Z,1.73
2023-01-30T09:14:55.595Z,1.47
2023-01-30T09:17:23.208Z,1.90
2023-01-30T09:19:52.126Z,1.60
2023-01-30T09:22:19.681Z,0.90
2023-01-30T09:24:47.190Z,1.85
2023-01-30T09:27:14.702Z,1.63
2023-01-30T09:29:44.320Z,1.60
2023-01-30T09:32:12.730Z,1.75
2023-01-30T09:34:40.253Z,1.90
2023-01-30T09:37:09.175Z,1.00
2023-01-30T09:39:36.687Z,1.60
2023-01-30T09:42:26.191Z,1.20
2023-01-30T09:45:03.223Z,1.67
2023-01-30T09:47:36.190Z,1.13
2023-01-30T09:50:09.337Z,1.20
2023-01-30T09:52:43.474Z,1.17
2023-01-30T09:55:17.363Z,1.73
2023-01-30T09:57:45.030Z,1.05
2023-01-30T10:00:16.527Z,1.02
2023-01-30T10:02:48.765Z,1.42
2023-01-30T10:05:16.516Z,0.90
2023-01-30T10:08:07.392Z,1.00
2023-01-30T10:10:41.142Z,1.42
2023-01-30T10:13:12.351Z,0.98
2023-01-30T10:15:45.951Z,1.20
2023-01-30T10:18:25.959Z,1.00
2023-01-30T10:20:57.780Z,1.30
2023-01-30T10:23:40.641Z,1.20
2023-01-30T10:26:10.768Z,1.17
2023-01-30T10:28:39.981Z,1.08
2023-01-30T10:31:11.309Z,1.10
2023-01-30T10:33:45.008Z,2.20
2023-01-30T10:36:14.930Z,0.82
2023-01-30T10:38:47.006Z,1.15
2023-01-30T10:41:20.505Z,0.85
2023-01-30T10:43:50.529Z,1.13
2023-01-30T10:46:24.666Z,0.98
2023-01-30T10:48:56.495Z,0.88
2023-01-30T10:51:30.493Z,0.90
2023-01-30T10:54:02.066Z,1.25
2023-01-30T10:56:32.811Z,1.00
2023-01-30T10:59:07.661Z,1.20
2023-01-30T11:01:39.343Z,1.33
2023-01-30T11:04:12.707Z,1.33
2023-01-30T11:06:40.297Z,1.38
2023-01-30T11:09:09.964Z,1.00
2023-01-30T11:11:43.502Z,1.20
2023-01-30T11:14:12.019Z,1.33
2023-01-30T11:16:44.317Z,1.38
2023-01-30T11:19:21.686Z,1.20
2023-01-30T11:21:51.622Z,1.13
2023-01-30T11:24:21.776Z,1.10
2023-01-30T11:26:49.653Z,1.00
2023-01-30T11:29:24.593Z,1.27
2023-01-30T11:31:52.730Z,1.17
2023-01-30T11:34:21.165Z,0.70
2023-01-30T11:36:48.727Z,0.90
2023-01-30T11:39:29.260Z,1.10
2023-01-30T11:42:04.586Z,1.15
2023-01-30T11:44:33.401Z,1.20
2023-01-30T11:47:02.422Z,1.07
2023-01-30T11:49:46.329Z,1.23
2023-01-30T11:52:24.211Z,1.60
2023-01-30T11:54:54.727Z,1.42
2023-01-30T11:57:22.322Z,1.42
2023-01-30T11:59:54.864Z,1.60
2023-01-30T12:02:24.443Z,1.05
2023-01-30T12:04:54.067Z,1.45
2023-01-30T12:07:22.750Z,1.67
2023-01-30T12:09:51.733Z,2.20
2023-01-30T12:12:40.494Z,1.43
2023-01-30T12:15:16.248Z,1.83
2023-01-30T12:17:47.033Z,2.00
2023-01-30T12:20:18.940Z,1.90
2023-01-30T12:22:50.513Z,1.33
2023-01-30T12:25:21.715Z,1.47
2023-01-30T12:27:53.809Z,2.00
2023-01-30T12:30:25.893Z,1.85
2023-01-30T12:32:57.523Z,1.50
2023-01-30T12:35:28.099Z,1.33
2023-01-30T12:38:01.685Z,1.53
2023-01-30T12:40:35.204Z,1.83
2023-01-30T12:43:26.399Z,2.70
2023-01-30T12:46:04.171Z,2.03
2023-01-30T12:49:10.193Z,1.50
2023-01-30T12:51:50.109Z,2.20
2023-01-30T12:54:24.513Z,1.85
2023-01-30T12:56:54.602Z,1.60
2023-01-30T12:59:25.846Z,1.70
2023-01-30T13:01:59.024Z,1.83
2023-01-30T13:04:31.222Z,1.47
2023-01-30T13:07:02.948Z,1.55
2023-01-30T13:09:39.290Z,1.75
2023-01-30T13:12:10.373Z,2.03
2023-01-30T13:14:42.509Z,1.70
2023-01-30T13:17:20.124Z,1.60
2023-01-30T13:19:50.217Z,1.70
2023-01-30T13:22:22.671Z,1.70
2023-01-30T13:24:57.372Z,1.80
2023-01-30T13:27:26.451Z,1.52
2023-01-30T13:29:54.758Z,1.57
2023-01-30T13:32:28.057Z,2.05
2023-01-30T13:34:56.949Z,1.52
2023-01-30T13:37:24.643Z,1.20
2023-01-30T13:39:54.453Z,1.85
2023-01-30T13:42:26.388Z,1.40
2023-01-30T13:44:54.413Z,1.15
2023-01-30T13:47:29.379Z,1.52
2023-01-30T13:50:01.138Z,1.42
2023-01-30T13:52:32.950Z,1.50
2023-01-30T13:55:03.792Z,1.53
2023-01-30T13:57:36.844Z,1.63
2023-01-30T14:00:21.329Z,1.73
2023-01-30T14:03:07.527Z,1.95
2023-01-30T14:05:53.861Z,1.67
2023-01-30T14:08:25.496Z,2.03
2023-01-30T14:10:55.594Z,1.50
2023-01-30T14:13:23.704Z,1.98
2023-01-30T14:15:54.665Z,1.48
2023-01-30T14:18:23.592Z,1.88
2023-01-30T14:20:52.108Z,2.37
2023-01-30T14:23:22.501Z,1.35
2023-01-30T14:25:52.801Z,1.92
2023-01-30T14:28:53.227Z,2.15
2023-01-30T14:31:44.986Z,2.58
2023-01-30T14:34:37.585Z,1.90
2023-01-30T14:37:05.282Z,2.63
2023-01-30T14:39:40.128Z,2.38
2023-01-30T14:42:21.782Z,2.65
2023-01-30T14:45:05.261Z,2.10
2023-01-30T14:47:39.009Z,1.77
2023-01-30T14:50:19.717Z,2.05
2023-01-30T14:52:49.591Z,2.17
2023-01-30T14:55:19.821Z,2.13
2023-01-30T14:57:54.600Z,2.03
2023-01-30T15:00:25.500Z,2.13
2023-01-30T15:02:54.897Z,2.28
2023-01-30T15:05:27.134Z,1.92
2023-01-30T15:07:58.046Z,2.20
2023-01-30T15:10:33.115Z,2.42
2023-01-30T15:13:18.572Z,2.70
2023-01-30T15:15:51.137Z,2.15
2023-01-30T15:18:29.760Z,1.80
2023-01-30T15:21:06.062Z,2.35
2023-01-30T15:23:42.885Z,1.50
2023-01-30T15:26:16.380Z,1.93
2023-01-30T15:28:48.538Z,2.22
2023-01-30T15:31:18.551Z,3.10
2023-01-30T15:33:46.804Z,4.07
2023-01-30T15:36:21.619Z,10.07
2023-01-30T15:38:56.479Z,5.43
2023-01-30T15:41:24.142Z,5.90
2023-01-30T15:44:05.364Z,2.70
2023-01-30T15:46:40.434Z,2.70
2023-01-30T15:49:16.676Z,1.98
2023-01-30T15:51:45.525Z,2.10
2023-01-30T15:54:16.662Z,2.58
2023-01-30T15:56:46.338Z,2.75
2023-01-30T15:59:27.433Z,2.40
2023-01-30T16:02:03.859Z,1.75
2023-01-30T16:04:32.091Z,1.90
2023-01-30T16:06:59.734Z,1.58
2023-01-30T16:09:27.513Z,2.00
2023-01-30T16:11:55.097Z,1.63
2023-01-30T16:14:23.431Z,2.13
2023-01-30T16:16:53.135Z,2.07
2023-01-30T16:19:28.231Z,1.90
2023-01-30T16:22:08.135Z,1.55
2023-01-30T16:24:37.176Z,1.77
2023-01-30T16:27:06.453Z,1.88
2023-01-30T16:29:35.912Z,1.90
2023-01-30T16:32:12.566Z,1.40
2023-01-30T16:34:41.779Z,1.77
2023-01-30T16:37:23.516Z,1.92
2023-01-30T16:40:02.905Z,1.63
2023-01-30T16:42:30.958Z,1.90
2023-01-30T16:45:11.624Z,1.58
2023-01-30T16:47:39.550Z,1.63
2023-01-30T16:50:18.052Z,1.48
2023-01-30T16:52:47.345Z,1.60
2023-01-30T16:55:19.798Z,1.30
2023-01-30T16:57:52.762Z,1.83
2023-01-30T17:00:22.320Z,1.52
2023-01-30T17:02:51.494Z,2.17
2023-01-30T17:05:22.612Z,1.65
2023-01-30T17:07:51.643Z,1.70
2023-01-30T17:10:37.895Z,3.45
2023-01-30T17:13:05.506Z,1.27
2023-01-30T17:15:34.204Z,1.67
2023-01-30T17:18:02.278Z,1.40
2023-01-30T17:20:36.911Z,1.73
2023-01-30T17:23:06.161Z,1.65
2023-01-30T17:25:35.799Z,1.67
2023-01-30T17:28:03.566Z,1.15
2023-01-30T17:30:31.524Z,1.92
2023-01-30T17:32:59.109Z,2.00
2023-01-30T17:35:26.786Z,1.65
2023-01-30T17:38:04.835Z,1.42
2023-01-30T17:40:34.602Z,1.10
2023-01-30T17:43:02.233Z,1.17
2023-01-30T17:45:29.972Z,1.40
2023-01-30T17:47:57.593Z,0.90
2023-01-30T17:50:25.363Z,0.93
2023-01-30T17:52:53.270Z,1.48
2023-01-30T17:55:22.589Z,1.58
2023-01-30T17:57:50.440Z,1.53
2023-01-30T18:00:19.855Z,1.05
2023-01-30T18:02:47.913Z,1.60
2023-01-30T18:05:16.011Z,1.58
2023-01-30T18:07:43.948Z,2.03
2023-01-30T18:10:15.041Z,1.70
2023-01-30T18:12:45.400Z,1.63
2023-01-30T18:15:14.187Z,1.85
2023-01-30T18:17:45.299Z,1.70
2023-01-30T18:20:14.539Z,1.83
2023-01-30T18:22:42.159Z,1.83
2023-01-30T18:25:13.350Z,2.25
2023-01-30T18:27:41.364Z,1.80
2023-01-30T18:30:11.231Z,1.33
2023-01-30T18:32:50.844Z,1.70
2023-01-30T18:35:19.935Z,1.53
2023-01-30T18:37:47.513Z,1.25
2023-01-30T18:40:15.288Z,1.48
2023-01-30T18:42:42.888Z,1.52
2023-01-30T18:45:12.201Z,2.53
2023-01-30T18:47:39.800Z,1.97
2023-01-30T18:50:07.726Z,1.60
2023-01-30T18:52:35.373Z,1.55
2023-01-30T18:55:02.999Z,1.42
2023-01-30T18:57:30.574Z,1.58
2023-01-30T18:59:58.175Z,1.17
2023-01-30T19:02:27.369Z,1.10
2023-01-30T19:04:54.966Z,1.17
2023-01-30T19:07:22.619Z,1.48
2023-01-30T19:09:50.222Z,1.17
2023-01-30T19:12:35.067Z,1.03
2023-01-30T19:15:03.416Z,1.33
2023-01-30T19:17:32.547Z,1.70
2023-01-30T19:20:02.006Z,1.40
2023-01-30T19:22:29.584Z,1.20
2023-01-30T19:24:57.169Z,1.50
2023-01-30T19:27:25.888Z,1.35
2023-01-30T19:29:53.452Z,1.55
2023-01-30T19:32:21.036Z,1.63
2023-01-30T19:34:51.009Z,1.38
2023-01-30T19:37:18.680Z,1.43
2023-01-30T19:39:46.273Z,1.35
2023-01-30T19:42:14.457Z,1.15
2023-01-30T19:44:42.819Z,1.90
2023-01-30T19:47:10.466Z,1.20
2023-01-30T19:49:38.458Z,1.37
2023-01-30T19:52:07.457Z,1.45
2023-01-30T19:54:35.011Z,1.20
2023-01-30T19:57:02.583Z,1.02
2023-01-30T19:59:30.156Z,1.40
2023-01-30T20:01:57.800Z,0.90
2023-01-30T20:04:25.407Z,1.25
2023-01-30T20:06:53.294Z,0.98
2023-01-30T20:09:22.318Z,1.00
2023-01-30T20:11:50.017Z,0.88
2023-01-30T20:14:17.645Z,1.10
2023-01-30T20:16:45.444Z,0.90
2023-01-30T20:19:14.137Z,1.40
2023-01-30T20:21:41.843Z,1.13
2023-01-30T20:24:10.976Z,1.52
2023-01-30T20:26:40.532Z,1.03
2023-01-30T20:29:09.250Z,1.35
2023-01-30T20:31:38.372Z,1.55
2023-01-30T20:34:07.361Z,1.27
2023-01-30T20:36:35.022Z,1.70
2023-01-30T20:39:04.330Z,1.63
2023-01-30T20:41:35.127Z,1.45
2023-01-30T20:44:04.926Z,1.17
2023-01-30T20:46:35.539Z,1.10
2023-01-30T20:49:03.267Z,1.30
2023-01-30T20:51:31.937Z,1.43
2023-01-30T20:54:00.803Z,1.55
2023-01-30T20:56:32.632Z,1.30
2023-01-30T20:59:00.197Z,1.10
2023-01-30T21:01:29.246Z,1.40
2023-01-30T21:03:57.249Z,0.77
2023-01-30T21:06:42.483Z,0.90
2023-01-30T21:09:13.931Z,2.17
2023-01-30T21:11:41.639Z,1.48
2023-01-30T21:14:09.236Z,1.75
2023-01-30T21:16:38.545Z,0.90
2023-01-30T21:19:07.106Z,1.42
2023-01-30T21:21:36.018Z,1.35
2023-01-30T21:24:04.544Z,1.00
2023-01-30T21:26:33.690Z,1.25
2023-01-30T21:29:01.853Z,1.10
2023-01-30T21:31:30.352Z,1.88
2023-01-30T21:34:00.107Z,1.33
2023-01-30T21:36:28.107Z,1.40
2023-01-30T21:39:13.172Z,1.52
2023-01-30T21:42:01.111Z,1.97
2023-01-30T21:44:29.535Z,1.17
2023-01-30T21:46:57.320Z,1.70
2023-01-30T21:49:26.358Z,1.73
2023-01-30T21:51:54.229Z,1.60
2023-01-30T21:54:22.542Z,2.50
2023-01-30T21:56:50.184Z,1.58
2023-01-30T21:59:18.049Z,1.40
2023-01-30T22:01:45.781Z,1.90
2023-01-30T22:04:14.858Z,1.30
2023-01-30T22:06:44.176Z,0.93
2023-01-30T22:09:13.830Z,1.52
2023-01-30T22:11:41.407Z,1.15
2023-01-30T22:14:09.028Z,1.25
2023-01-30T22:16:36.606Z,1.10
2023-01-30T22:19:05.498Z,1.77
2023-01-30T22:21:34.372Z,1.10
2023-01-30T22:24:03.626Z,1.20
2023-01-30T22:26:31.500Z,1.23
2023-01-30T22:28:59.714Z,1.15
2023-01-30T22:31:27.885Z,1.30
2023-01-30T22:33:56.616Z,1.17
2023-01-30T22:36:25.257Z,1.60
2023-01-30T22:38:52.857Z,1.10
2023-01-30T22:41:23.025Z,0.80
2023-01-30T22:43:51.736Z,1.00
2023-01-30T22:46:20.032Z,0.95
2023-01-30T22:48:47.844Z,1.02
2023-01-30T22:51:15.967Z,1.67
2023-01-30T22:53:44.231Z,1.15
2023-01-30T22:56:13.183Z,1.20
2023-01-30T22:58:42.403Z,1.80
2023-01-30T23:01:12.630Z,0.98
2023-01-30T23:03:40.533Z,1.27
2023-01-30T23:06:08.970Z,1.05
2023-01-30T23:08:38.125Z,1.27
2023-01-30T23:11:07.413Z,1.52
2023-01-30T23:13:35.580Z,0.98
2023-01-30T23:16:06.156Z,1.23
2023-01-30T23:18:51.532Z,1.23
2023-01-30T23:21:19.138Z,1.53
2023-01-30T23:23:46.813Z,1.42
2023-01-30T23:26:14.788Z,0.77
2023-01-30T23:28:42.382Z,1.15
2023-01-30T23:31:12.557Z,1.40
2023-01-30T23:33:40.459Z,1.50
2023-01-30T23:36:09.062Z,1.08
2023-01-30T23:38:36.994Z,0.98
2023-01-30T23:41:08.804Z,0.88
2023-01-30T23:43:36.775Z,0.98
2023-01-30T23:46:16.427Z,0.80
2023-01-30T23:48:44.877Z,1.70
2023-01-30T23:51:12.479Z,1.35
2023-01-30T23:53:40.042Z,0.90
2023-01-30T23:56:08.302Z,1.50
2023-01-30T23:58:36.496Z,1.23
